M I D A S
Marine Information and Data Acquisition System
Tripno 447 of the Zeeleeuw from 2003-03-18 07:55:48 to 2003-03-18 14:00:53
Back to CruiseResearch ActivitiesStationsMapUnderway DataData graphs

EquipmentUnitsComment
TimeDGPSUTC
LatitudeDGPSDM.mWGS84
LongitudeDGPSDM.mWGS84
HeadingGyrodeg 
SOGDGPSknotsSpeed over ground
COGDGPSdegCourse over ground
DepthEcho soundermeters200 kHz
Missing or incorrect values are displayed as -999
Navigation data collected by the RV Zeeleeuw from 2003-03-18 07:55:48 to 2003-03-18 14:00:53
                                                                                    Next 1000 lines
Time Latitude Longitude Heading SOG COG Depth
2003-03-18 07:55:58 51°13.68 2°55.911 120.7 0.2 211 6.5
2003-03-18 07:56:02 51°13.68 2°55.911 120 0.1 210 6.5
2003-03-18 07:56:08 51°13.681 2°55.911 119.1 0.1 190 6.5
2003-03-18 07:56:12 51°13.681 2°55.911 118.2 0.1 200 6.5
2003-03-18 07:56:18 51°13.681 2°55.911 117.5 0.1 213 6.5
2003-03-18 07:56:22 51°13.681 2°55.911 116.6 0.1 214 6.5
2003-03-18 07:56:28 51°13.681 2°55.911 115.8 0.1 206 6.5
2003-03-18 07:56:33 51°13.681 2°55.912 114.8 0.1 196 6.5
2003-03-18 07:56:38 51°13.68 2°55.913 114 0.2 201 6.5
2003-03-18 07:56:42 51°13.68 2°55.913 113.2 0.2 207 6.5
2003-03-18 07:56:48 51°13.68 2°55.914 112.4 0.1 207 6.5
2003-03-18 07:56:52 51°13.68 2°55.914 111.5 0.1 182 6.6
2003-03-18 07:56:58 51°13.68 2°55.913 110.6   223 6.5
2003-03-18 07:57:02 51°13.681 2°55.913 109.9 0.1 280 6.6
2003-03-18 07:57:08 51°13.681 2°55.911 109.3 0.4 286 6.6
2003-03-18 07:57:12 51°13.681 2°55.909 108.6 0.7 289 6.7
2003-03-18 07:57:18 51°13.682 2°55.906 107.7 1 289 6.8
2003-03-18 07:57:23 51°13.683 2°55.904 106.9 1.4 288 6.8
2003-03-18 07:57:27 51°13.682 2°55.901 106.2 1.6 287 -999
2003-03-18 07:57:34 51°13.683 2°55.895 105.2 1.9 286 -999
2003-03-18 07:57:38 51°13.683 2°55.891 104.2 2.2 285 -999
2003-03-18 07:57:44 51°13.685 2°55.884 103 2.4 284 -999
2003-03-18 07:57:50 51°13.685 2°55.877 102 2.6 281 -999
2003-03-18 07:57:54 51°13.685 2°55.872 100.8 2.9 280 -999
2003-03-18 07:57:59 51°13.686 2°55.865 99.4 3 279 -999
2003-03-18 07:58:04 51°13.687 2°55.857 98 3.2 279 -999
2003-03-18 07:58:10 51°13.687 2°55.848 96.6 3.3 277 -999
2003-03-18 07:58:14 51°13.687 2°55.841 95 3.4 276 -999
2003-03-18 07:58:19 51°13.687 2°55.833 93.1 3.4 275 -999
2003-03-18 07:58:24 51°13.687 2°55.824 91.1 3.4 273 -999
2003-03-18 07:58:29 51°13.686 2°55.817 89.4 3.4 271 5.2
2003-03-18 07:58:34 51°13.686 2°55.81 87.6 3.4 268 -999
2003-03-18 07:58:38 51°13.687 2°55.804 85.8 3.4 266 -999
2003-03-18 07:58:44 51°13.687 2°55.796 84.1 3.4 265 -999
2003-03-18 07:58:49 51°13.686 2°55.788 83.1 3.4 263 -999
2003-03-18 07:58:54 51°13.685 2°55.781 82 3.5 262 -999
2003-03-18 07:58:59 51°13.684 2°55.773 80.8 3.4 261 -999
2003-03-18 07:59:04 51°13.684 2°55.767 80.3 3.3 261 -999
2003-03-18 07:59:09 51°13.683 2°55.76 79.7 3.1 261 -999
2003-03-18 07:59:14 51°13.683 2°55.755 78.2 2.7 260 -999
2003-03-18 07:59:18 51°13.683 2°55.752 76 2.1 261 -999
2003-03-18 07:59:22 51°13.683 2°55.75 73.7 1.7 262 8.2
2003-03-18 07:59:28 51°13.683 2°55.748 71.2 1.3 266 8
2003-03-18 07:59:33 51°13.683 2°55.746 68 0.9 272 7.8
2003-03-18 07:59:38 51°13.684 2°55.746 64.5 0.7 282 9
2003-03-18 07:59:43 51°13.685 2°55.745 60.8 0.5 304 7.3
2003-03-18 07:59:48 51°13.686 2°55.746 56.6 0.5 343 8.7
2003-03-18 07:59:53 51°13.687 2°55.746 51.8 0.6 359 9.1
2003-03-18 07:59:58 51°13.689 2°55.747 46.8 0.8 8 5.9
2003-03-18 08:00:03 51°13.69 2°55.748 41.6 1.1 9 9.2
2003-03-18 08:00:08 51°13.692 2°55.749 36.3 1.2 11 10.1
2003-03-18 08:00:13 51°13.694 2°55.749 31 1.4 12 9.8
2003-03-18 08:00:18 51°13.697 2°55.75 25.7 1.6 10 9
2003-03-18 08:00:23 51°13.7 2°55.749 20.4 1.8 7 8.2
2003-03-18 08:00:28 51°13.703 2°55.749 15.3 1.9 2 7.4
2003-03-18 08:00:33 51°13.706 2°55.749 9.6 2.3 357 7.9
2003-03-18 08:00:38 51°13.71 2°55.748 3 2.6 355 8.2
2003-03-18 08:00:43 51°13.715 2°55.747 356.4 3 352 7.3
2003-03-18 08:00:48 51°13.72 2°55.745 348.9 3.4 347 9.4
2003-03-18 08:00:53 51°13.725 2°55.741 344 3.8 341 8.1
2003-03-18 08:00:58 51°13.731 2°55.737 338.7 4 336 8.6
2003-03-18 08:01:02 51°13.735 2°55.733 334.2 4.4 332 8.5
2003-03-18 08:01:08 51°13.742 2°55.726 331.5 4.7 329 8.5
2003-03-18 08:01:13 51°13.747 2°55.72 330.5 5.1 328 8.4
2003-03-18 08:01:18 51°13.754 2°55.712 330.3 5.4 327 8.2
2003-03-18 08:01:22 51°13.759 2°55.706 330.3 5.9 327 8.4
2003-03-18 08:01:28 51°13.768 2°55.697 330.2 6.6 326 8.5
2003-03-18 08:01:32 51°13.774 2°55.69 330 7 326 8.7
2003-03-18 08:01:38 51°13.783 2°55.678 330.6 7.2 325 8.8
2003-03-18 08:01:42 51°13.79 2°55.67 331.8 7.5 326 8.8
2003-03-18 08:01:48 51°13.802 2°55.658 333.3 7.9 327 8.8
2003-03-18 08:01:53 51°13.813 2°55.649 334.8 8.4 329 8.8
2003-03-18 08:01:58 51°13.824 2°55.639 336 8.6 330 8.9
2003-03-18 08:02:02 51°13.834 2°55.632 337.3 8.9 332 8.9
2003-03-18 08:02:08 51°13.848 2°55.622 338.4 9.1 333 8.6
2003-03-18 08:02:12 51°13.858 2°55.615 339.3 9.2 335 8.6
2003-03-18 08:02:18 51°13.872 2°55.604 339.5 9.4 335 7.7
2003-03-18 08:02:22 51°13.881 2°55.597 339.6 9.7 336 8.6
2003-03-18 08:02:28 51°13.895 2°55.586 339.6 9.7 335 8.5
2003-03-18 08:02:33 51°13.907 2°55.577 339.6 9.7 335 7.3
2003-03-18 08:02:38 51°13.92 2°55.568 340.4 9.7 335 8.7
2003-03-18 08:02:42 51°13.931 2°55.562 340.9 9.7 336 8.6
2003-03-18 08:02:48 51°13.947 2°55.551 340.8 9.8 336 8.8
2003-03-18 08:02:52 51°13.957 2°55.544 340.7 9.8 335 8.6
2003-03-18 08:02:58 51°13.973 2°55.534 340.8 9.8 335 8.5
2003-03-18 08:03:03 51°13.985 2°55.524 340.4 9.8 335 8.5
2003-03-18 08:03:08 51°13.997 2°55.515 339.6 9.8 335 8.5
2003-03-18 08:03:13 51°14.01 2°55.506 339.1 9.8 334 8.6
2003-03-18 08:03:18 51°14.022 2°55.497 339.3 9.8 334 8.8
2003-03-18 08:03:23 51°14.034 2°55.487 340 9.8 335 8
2003-03-18 08:03:27 51°14.044 2°55.48 340.2 9.8 335 8.4
2003-03-18 08:03:33 51°14.058 2°55.469 339.9 9.8 335 8.3
2003-03-18 08:03:38 51°14.07 2°55.46 340.4 9.7 335 7.2
2003-03-18 08:03:43 51°14.082 2°55.451 341 9.7 335 7.2
2003-03-18 08:03:48 51°14.095 2°55.442 340.9 9.7 336 8.5
2003-03-18 08:03:53 51°14.107 2°55.433 339.7 9.8 335 8.7
2003-03-18 08:03:58 51°14.12 2°55.423 339.7 9.8 334 8.5
2003-03-18 08:04:03 51°14.132 2°55.414 339.7 9.8 334 7.7
2003-03-18 08:04:08 51°14.144 2°55.404 338.9 9.7 334 6.3
2003-03-18 08:04:13 51°14.156 2°55.394 338.1 9.7 333 8.6
2003-03-18 08:04:18 51°14.168 2°55.385 337.2 9.7 332 8.6
2003-03-18 08:04:22 51°14.177 2°55.376 335.6 9.7 331 8.7
2003-03-18 08:04:28 51°14.19 2°55.363 333.4 9.6 329 8.7
2003-03-18 08:04:33 51°14.201 2°55.351 331 9.5 327 8.3
2003-03-18 08:04:38 51°14.212 2°55.338 329 9.5 324 7.2
2003-03-18 08:04:43 51°14.222 2°55.325 326.9 9.5 322 8.5
2003-03-18 08:04:47 51°14.23 2°55.314 325 9.5 320 8.2
2003-03-18 08:04:53 51°14.242 2°55.297 323.7 9.5 319 8.7
2003-03-18 08:04:58 51°14.251 2°55.283 321.5 9.5 317 8.8
2003-03-18 08:05:02 51°14.258 2°55.271 318.6 9.5 315 8.6
2003-03-18 08:05:08 51°14.269 2°55.252 316.1 9.5 312 8.8
2003-03-18 08:05:13 51°14.277 2°55.236 315.3 9.5 311 8.9
2003-03-18 08:05:18 51°14.285 2°55.219 314.6 9.5 310 8.9
2003-03-18 08:05:23 51°14.293 2°55.202 312.8 9.5 309 8.8
2003-03-18 08:05:28 51°14.301 2°55.185 312.3 9.5 307 8.6
2003-03-18 08:05:33 51°14.309 2°55.169 312.5 9.5 308 7.8
2003-03-18 08:05:38 51°14.317 2°55.151 311.4 9.5 308 8.8
2003-03-18 08:05:42 51°14.323 2°55.137 309.4 9.8 306 9.1
2003-03-18 08:05:48 51°14.332 2°55.115 307.1 10 305 8.5
2003-03-18 08:05:53 51°14.339 2°55.095 305.5 10.1 302 8.8
2003-03-18 08:05:58 51°14.345 2°55.075 304.7 10.2 300 9.1
2003-03-18 08:06:02 51°14.351 2°55.059 304.1 10.3 299 8.9
2003-03-18 08:06:08 51°14.36 2°55.034 302.6 10.4 298 8.9
2003-03-18 08:06:13 51°14.366 2°55.012 300.8 10.6 296 7.6
2003-03-18 08:06:18 51°14.372 2°54.99 298.9 10.7 294 8.9
2003-03-18 08:06:23 51°14.379 2°54.967 297.5 11 292 9.1
2003-03-18 08:06:28 51°14.384 2°54.942 296.5 11.4 290 9.1
2003-03-18 08:06:33 51°14.389 2°54.918 295.6 11.7 288 9.4
2003-03-18 08:06:38 51°14.394 2°54.892 294.9 11.9 287 9.4
2003-03-18 08:06:42 51°14.398 2°54.872 294.9 12.1 286 9.4
2003-03-18 08:06:48 51°14.404 2°54.84 294.4 12.3 286 9.4
2003-03-18 08:06:53 51°14.408 2°54.813 293.8 12.5 285 9.4
2003-03-18 08:06:58 51°14.412 2°54.786 294 12.6 284 9.4
2003-03-18 08:07:02 51°14.416 2°54.764 295 12.7 285 9.2
2003-03-18 08:07:08 51°14.422 2°54.731 295.4 12.7 286 9.2
2003-03-18 08:07:13 51°14.426 2°54.704 295.4 12.8 286 9.5
2003-03-18 08:07:18 51°14.431 2°54.677 297.3 12.9 287 9.5
2003-03-18 08:07:22 51°14.436 2°54.656 300.4 12.9 290 9.3
2003-03-18 08:07:28 51°14.445 2°54.625 303.9 12.9 292 9.4
2003-03-18 08:07:32 51°14.451 2°54.604 305.8 12.8 295 9.4
2003-03-18 08:07:38 51°14.46 2°54.574 307.5 12.8 296 9.1
2003-03-18 08:07:42 51°14.467 2°54.554 309.5 12.8 298 9.4
2003-03-18 08:07:48 51°14.478 2°54.525 311.8 12.9 301 9.3
2003-03-18 08:07:53 51°14.488 2°54.502 314.4 12.9 303 9.2
2003-03-18 08:07:58 51°14.499 2°54.479 317.6 13 306 9.1
2003-03-18 08:08:04 51°14.513 2°54.453 320.3 13 309 9.5
2003-03-18 08:08:08 51°14.523 2°54.437 324.1 13 312 9.4
2003-03-18 08:08:12 51°14.534 2°54.42 326.3 13 314 9.5
2003-03-18 08:08:18 51°14.55 2°54.398 328.9 12.9 316 9.6
2003-03-18 08:08:23 51°14.563 2°54.38 331.6 12.8 319 9.4
2003-03-18 08:08:28 51°14.577 2°54.364 334.5 12.8 322 9.3
2003-03-18 08:08:33 51°14.592 2°54.348 337.4 12.9 325 9.4
2003-03-18 08:08:38 51°14.608 2°54.333 338.6 12.9 327 9.4
2003-03-18 08:08:41 51°14.617 2°54.324 338.9 13 328 9
2003-03-18 08:08:48 51°14.639 2°54.302 338.3 13.1 328 9
2003-03-18 08:08:52 51°14.652 2°54.289 338.1 13.1 327 9.1
2003-03-18 08:08:58 51°14.67 2°54.271 338.1 13.2 327 9
2003-03-18 08:09:03 51°14.685 2°54.256 338.2 13.2 328 8.9
2003-03-18 08:09:08 51°14.701 2°54.242 339.7 13.2 329 8.8
2003-03-18 08:09:12 51°14.714 2°54.23 340.5 13.2 330 8.8
2003-03-18 08:09:18 51°14.733 2°54.214 341.5 13.3 331 8.8
2003-03-18 08:09:23 51°14.75 2°54.2 342 13.3 332 8.7
2003-03-18 08:09:28 51°14.766 2°54.187 342.5 13.3 332 7.7
2003-03-18 08:09:33 51°14.783 2°54.173 342.8 13.3 333 8.6
2003-03-18 08:09:38 51°14.799 2°54.161 343.4 13.3 333 8.7
2003-03-18 08:09:42 51°14.813 2°54.15 343 13.3 333 8.6
2003-03-18 08:09:48 51°14.832 2°54.133 342.4 13.3 332 8.3
2003-03-18 08:09:53 51°14.849 2°54.119 342.5 13.3 332 8.1
2003-03-18 08:09:58 51°14.864 2°54.105 342.2 13.2 331 7.9
2003-03-18 08:10:02 51°14.877 2°54.094 341.9 13.2 331 7.9
2003-03-18 08:10:08 51°14.896 2°54.078 341.8 13.1 331 7.9
2003-03-18 08:10:12 51°14.909 2°54.067 341.8 12.9 331 7.8
2003-03-18 08:10:18 51°14.928 2°54.051 342.2 12.9 331 7.8
2003-03-18 08:10:23 51°14.944 2°54.038 342.8 12.9 332 7.8
2003-03-18 08:10:28 51°14.96 2°54.025 343.5 12.9 333 7.8
2003-03-18 08:10:33 51°14.976 2°54.012 343.9 12.9 334 7.8
2003-03-18 08:10:38 51°14.992 2°54 344.2 13 335 7.8
2003-03-18 08:10:43 51°15.009 2°53.987 343.8 13 334 8
2003-03-18 08:10:48 51°15.025 2°53.973 343.3 13.1 333 8.1
2003-03-18 08:10:53 51°15.041 2°53.96 342.7 13.1 332 8
2003-03-18 08:10:58 51°15.057 2°53.946 342.3 13.1 331 8
2003-03-18 08:11:02 51°15.069 2°53.935 342.1 13.1 331 8
2003-03-18 08:11:08 51°15.088 2°53.918 341.8 13.1 331 8.1
2003-03-18 08:11:13 51°15.104 2°53.905 342 13.1 331 8.1
2003-03-18 08:11:18 51°15.12 2°53.892 342.7 13.1 332 8.1
2003-03-18 08:11:23 51°15.136 2°53.879 343.3 13.1 333 8.1
2003-03-18 08:11:28 51°15.153 2°53.865 342.9 13.2 333 8.2
2003-03-18 08:11:33 51°15.169 2°53.852 343 13.2 333 8.2
2003-03-18 08:11:38 51°15.185 2°53.839 343.4 13.2 333 8.2
2003-03-18 08:11:41 51°15.195 2°53.831 343.7 13.2 333 8.3
2003-03-18 08:11:48 51°15.218 2°53.812 343.1 13.3 333 8.3
2003-03-18 08:11:52 51°15.231 2°53.801 342.7 13.3 332 8.5
2003-03-18 08:11:58 51°15.251 2°53.785 343 13.3 332 8.7
2003-03-18 08:12:03 51°15.267 2°53.772 342.1 13.3 332 8.5
2003-03-18 08:12:08 51°15.283 2°53.757 341.8 13.3 331 8.4
2003-03-18 08:12:13 51°15.299 2°53.742 341.1 13.3 330 8.6
2003-03-18 08:12:18 51°15.315 2°53.727 340.6 13.4 329 8.7
2003-03-18 08:12:22 51°15.328 2°53.714 340.9 13.4 329 8.7
2003-03-18 08:12:28 51°15.347 2°53.697 341.5 13.4 330 8.8
2003-03-18 08:12:33 51°15.363 2°53.682 342.1 13.5 330 8.8
2003-03-18 08:12:38 51°15.379 2°53.669 342.8 13.5 331 9
2003-03-18 08:12:42 51°15.393 2°53.658 343.3 13.5 332 8.9
2003-03-18 08:12:48 51°15.412 2°53.641 343.3 13.5 332 9
2003-03-18 08:12:52 51°15.426 2°53.628 342.5 13.5 330 9.1
2003-03-18 08:12:58 51°15.445 2°53.61 342.1 13.5 330 9.1
2003-03-18 08:13:03 51°15.461 2°53.596 342 13.5 330 9.2
2003-03-18 08:13:08 51°15.477 2°53.582 342.5 13.5 331 9.3
2003-03-18 08:13:13 51°15.494 2°53.567 342.5 13.5 331 9.4
2003-03-18 08:13:18 51°15.51 2°53.553 342.6 13.5 331 9.5
2003-03-18 08:13:23 51°15.527 2°53.538 342.5 13.5 331 9.6
2003-03-18 08:13:28 51°15.543 2°53.522 341.9 13.6 330 9.6
2003-03-18 08:13:33 51°15.559 2°53.507 341.7 13.7 329 9.7
2003-03-18 08:13:38 51°15.576 2°53.491 341.6 13.7 329 9.8
2003-03-18 08:13:43 51°15.592 2°53.475 341.4 13.7 329 9.9
2003-03-18 08:13:48 51°15.608 2°53.46 341.8 13.7 329 10
2003-03-18 08:13:53 51°15.625 2°53.444 341.9 13.6 329 10
2003-03-18 08:13:58 51°15.641 2°53.429 342.3 13.6 329 10.1
2003-03-18 08:14:02 51°15.654 2°53.417 342.2 13.6 329 10.1
2003-03-18 08:14:08 51°15.673 2°53.398 341.9 13.6 329 10.2
2003-03-18 08:14:13 51°15.69 2°53.383 343 13.6 329 10.2
2003-03-18 08:14:18 51°15.706 2°53.371 346.2 13.5 331 10.4
2003-03-18 08:14:22 51°15.72 2°53.361 349.5 13.3 335 10.3
2003-03-18 08:14:28 51°15.74 2°53.348 351.4 13.2 338 10.4
2003-03-18 08:14:33 51°15.757 2°53.338 352.8 13.2 339 10.5
2003-03-18 08:14:38 51°15.775 2°53.33 354.1 13.2 341 10.5
2003-03-18 08:14:43 51°15.792 2°53.321 355.4 13.1 343 10.5
2003-03-18 08:14:48 51°15.81 2°53.313 356.1 13 344 10.6
2003-03-18 08:14:53 51°15.827 2°53.307 357 13 345 10.6
2003-03-18 08:14:58 51°15.845 2°53.3 356.6 13 346 10.6
2003-03-18 08:15:02 51°15.859 2°53.294 355.7 13.1 345 10.7
2003-03-18 08:15:08 51°15.879 2°53.283 355 13.1 344 10.7
2003-03-18 08:15:13 51°15.897 2°53.275 353.9 13.2 343 10.7
2003-03-18 08:15:18 51°15.914 2°53.265 353.1 13.2 342 10.8
2003-03-18 08:15:22 51°15.928 2°53.258 352.6 13.2 342 10.8
2003-03-18 08:15:28 51°15.948 2°53.246 352 13.3 341 10.8
2003-03-18 08:15:33 51°15.966 2°53.236 351.3 13.2 341 10.9
2003-03-18 08:15:38 51°15.983 2°53.226 351.2 13.3 340 10.9
2003-03-18 08:15:43 51°16 2°53.216 350.8 13.3 340 10.9
2003-03-18 08:15:48 51°16.018 2°53.205 350.5 13.4 340 11
2003-03-18 08:15:53 51°16.035 2°53.196 350.5 13.4 340 11
2003-03-18 08:15:58 51°16.053 2°53.186 350.6 13.4 340 11
2003-03-18 08:16:03 51°16.07 2°53.178 351.2 13.3 341 11.1
2003-03-18 08:16:08 51°16.088 2°53.169 351.3 13.4 342 11.1
2003-03-18 08:16:13 51°16.106 2°53.159 350.9 13.4 342 11.1
2003-03-18 08:16:18 51°16.123 2°53.149 350.3 13.4 341 11.2
2003-03-18 08:16:22 51°16.137 2°53.141 350 13.4 340 11.2
2003-03-18 08:16:28 51°16.158 2°53.128 349.9 13.4 340 11.3
2003-03-18 08:16:33 51°16.175 2°53.118 350.2 13.4 340 11.3
2003-03-18 08:16:38 51°16.192 2°53.109 350.5 13.3 340 11.3
2003-03-18 08:16:42 51°16.206 2°53.101 350.9 13.3 341 11.3
2003-03-18 08:16:48 51°16.227 2°53.09 351 13.3 341 11.3
2003-03-18 08:16:53 51°16.244 2°53.08 350.7 13.4 341 11.4
2003-03-18 08:16:58 51°16.261 2°53.07 350.6 13.3 340 11.3
2003-03-18 08:17:02 51°16.275 2°53.063 350.2 13.3 340 11.3
2003-03-18 08:17:08 51°16.296 2°53.051 350.2 13.3 340 11.4
2003-03-18 08:17:13 51°16.313 2°53.04 350.1 13.3 340 11.3
2003-03-18 08:17:18 51°16.33 2°53.03 350.4 13.3 340 11.3
2003-03-18 08:17:22 51°16.344 2°53.023 350.5 13.3 340 11.3
2003-03-18 08:17:28 51°16.365 2°53.011 350.7 13.3 340 11.4
2003-03-18 08:17:33 51°16.383 2°53.001 350.5 13.3 340 11.2
2003-03-18 08:17:38 51°16.4 2°52.991 350.2 13.3 340 11.2
2003-03-18 08:17:43 51°16.418 2°52.981 350.4 13.3 340 11.2
2003-03-18 08:17:48 51°16.435 2°52.971 350.5 13.3 340 11.2
2003-03-18 08:17:53 51°16.453 2°52.961 350.5 13.3 341 11.2
2003-03-18 08:17:58 51°16.47 2°52.951 350.4 13.3 340 11
2003-03-18 08:18:03 51°16.487 2°52.942 350.5 13.2 341 11
2003-03-18 08:18:08 51°16.505 2°52.932 350.7 13.2 341 10.9
2003-03-18 08:18:13 51°16.522 2°52.923 350.7 13.2 341 10.9
2003-03-18 08:18:18 51°16.539 2°52.913 350.7 13.2 341 10.8
2003-03-18 08:18:22 51°16.553 2°52.905 350.5 13.2 341 10.7
2003-03-18 08:18:28 51°16.574 2°52.894 350.5 13.2 341 10.7
2003-03-18 08:18:32 51°16.587 2°52.886 350.4 13.2 340 10.6
2003-03-18 08:18:38 51°16.608 2°52.875 350.8 13.2 341 10.5
2003-03-18 08:18:42 51°16.622 2°52.867 351 13.2 341 10.4
2003-03-18 08:18:48 51°16.643 2°52.857 351.1 13.1 341 10.3
2003-03-18 08:18:53 51°16.66 2°52.847 351.1 13 341 10.2
2003-03-18 08:18:58 51°16.677 2°52.838 350.6 13 341 10
2003-03-18 08:19:03 51°16.694 2°52.828 350.5 13.1 341 9.9
2003-03-18 08:19:08 51°16.711 2°52.819 350.2 13.1 341 9.7
2003-03-18 08:19:13 51°16.728 2°52.809 350.3 13.1 341 9.6
2003-03-18 08:19:18 51°16.746 2°52.8 350.2 13.1 341 9.3
2003-03-18 08:19:23 51°16.763 2°52.79 350.1 13.1 341 9
2003-03-18 08:19:28 51°16.78 2°52.781 350.3 13 341 8.5
2003-03-18 08:19:33 51°16.797 2°52.772 350.5 12.9 341 8.5
2003-03-18 08:19:38 51°16.814 2°52.763 350.5 12.7 341 8.6
2003-03-18 08:19:42 51°16.827 2°52.756 350.6 12.6 341 8.6
2003-03-18 08:19:48 51°16.847 2°52.745 350.7 12.6 341 8.3
2003-03-18 08:19:53 51°16.863 2°52.736 350.7 12.6 341 8.2
2003-03-18 08:19:58 51°16.88 2°52.726 350.8 12.6 341 8.2
2003-03-18 08:20:02 51°16.893 2°52.719 350.8 12.6 341 8.3
2003-03-18 08:20:08 51°16.913 2°52.708 350.7 12.6 341 8.3
2003-03-18 08:20:13 51°16.93 2°52.699 350.6 12.6 341 8.4
2003-03-18 08:20:18 51°16.946 2°52.689 350.6 12.8 340 8.6
2003-03-18 08:20:22 51°16.96 2°52.682 350.5 12.8 340 8.7
2003-03-18 08:20:28 51°16.98 2°52.67 350.5 12.9 340 8.9
2003-03-18 08:20:33 51°16.997 2°52.661 350.8 13 341 9
2003-03-18 08:20:38 51°17.014 2°52.652 351 13.1 341 9.2
2003-03-18 08:20:42 51°17.028 2°52.644 350.5 13.2 341 9
2003-03-18 08:20:48 51°17.049 2°52.632 350.2 13.2 340 8.8
2003-03-18 08:20:53 51°17.066 2°52.623 350.2 13.2 340 8.6
2003-03-18 08:20:58 51°17.083 2°52.613 350.1 13.1 340 8.5
2003-03-18 08:21:03 51°17.1 2°52.604 350.5 13 340 8.5
2003-03-18 08:21:08 51°17.117 2°52.594 350.5 12.9 340 8.5
2003-03-18 08:21:13 51°17.134 2°52.585 350.7 12.8 340 8.5
2003-03-18 08:21:18 51°17.151 2°52.576 351.1 12.8 341 8.5
2003-03-18 08:21:24 51°17.171 2°52.565 351.2 12.8 341 8.6
2003-03-18 08:21:29 51°17.188 2°52.555 351.3 12.9 341 8.6
2003-03-18 08:21:34 51°17.205 2°52.546 350.8 13.1 341 8.6
2003-03-18 08:21:38 51°17.218 2°52.538 350.8 13 341 8.7
2003-03-18 08:21:44 51°17.238 2°52.526 350.7 13 340 8.8
2003-03-18 08:21:49 51°17.255 2°52.517 350.6 13 340 8.9
2003-03-18 08:21:54 51°17.272 2°52.506 350.2 13 340 8.9
2003-03-18 08:21:58 51°17.286 2°52.499 350 13 340 9
2003-03-18 08:22:03 51°17.303 2°52.488 350 13.1 340 9.1
2003-03-18 08:22:08 51°17.32 2°52.479 351.6 13.1 341 9.1
2003-03-18 08:22:14 51°17.341 2°52.469 352.8 13.1 342 9.2
2003-03-18 08:22:19 51°17.358 2°52.461 353.8 13.1 343 9.1
2003-03-18 08:22:24 51°17.375 2°52.453 354.5 13 345 9.2
2003-03-18 08:22:28 51°17.389 2°52.448 355.3 13 345 9.2
2003-03-18 08:22:34 51°17.41 2°52.439 355.9 13 346 9.1
2003-03-18 08:22:38 51°17.424 2°52.434 356.3 13 346 9.3
2003-03-18 08:22:43 51°17.441 2°52.427 356.4 12.9 346 9.3
2003-03-18 08:22:49 51°17.462 2°52.418 356.3 12.9 346 9.4
2003-03-18 08:22:54 51°17.48 2°52.411 355.9 12.9 346 9.3
2003-03-18 08:22:58 51°17.494 2°52.404 355.5 13 345 9.4
2003-03-18 08:23:04 51°17.515 2°52.396 355.3 13 345 9.4
2003-03-18 08:23:08 51°17.529 2°52.39 355.2 13 345 9.2
2003-03-18 08:23:14 51°17.55 2°52.381 355.1 12.9 345 9.4
2003-03-18 08:23:18 51°17.563 2°52.375 355.1 12.9 345 9.5
2003-03-18 08:23:24 51°17.584 2°52.366 355.1 12.9 345 9.4
2003-03-18 08:23:28 51°17.598 2°52.36 355.2 12.9 345 9.4
2003-03-18 08:23:34 51°17.618 2°52.352 355.4 13 345 9.3
2003-03-18 08:23:38 51°17.632 2°52.346 355.6 13 345 9.4
2003-03-18 08:23:44 51°17.653 2°52.337 355.5 12.9 345 9.4
2003-03-18 08:23:49 51°17.67 2°52.33 355.4 12.9 345 9.3
2003-03-18 08:23:54 51°17.687 2°52.322 355.4 12.9 345 9.3
2003-03-18 08:23:58 51°17.701 2°52.316 355.1 12.9 345 9.3
2003-03-18 08:24:04 51°17.722 2°52.307 355.2 12.9 345 9.4
2003-03-18 08:24:08 51°17.736 2°52.301 355.2 12.9 345 9.3
2003-03-18 08:24:14 51°17.757 2°52.293 355.1 12.9 344 9.4
2003-03-18 08:24:18 51°17.771 2°52.286 354.9 12.9 344 9.4
2003-03-18 08:24:24 51°17.792 2°52.277 355.2 12.9 345 9.4
2003-03-18 08:24:29 51°17.809 2°52.269 355.3 12.9 345 9.4
2003-03-18 08:24:34 51°17.826 2°52.262 355.3 12.9 344 9.4
2003-03-18 08:24:38 51°17.839 2°52.256 355.4 13 345 9.5
2003-03-18 08:24:44 51°17.86 2°52.247 355.4 13 344 9.4
2003-03-18 08:24:49 51°17.877 2°52.239 355.4 12.9 344 9.5
2003-03-18 08:24:53 51°17.891 2°52.233 355.6 12.9 345 9.4
2003-03-18 08:24:58 51°17.908 2°52.225 355.6 12.9 345 9.5
2003-03-18 08:25:04 51°17.929 2°52.217 355.4 13 345 9.5
2003-03-18 08:25:08 51°17.943 2°52.211 355.6 13 345 9.6
2003-03-18 08:25:14 51°17.964 2°52.202 355.6 13 345 9.5
2003-03-18 08:25:18 51°17.978 2°52.194 354.8 13 344 9.5
2003-03-18 08:25:24 51°17.999 2°52.185 354.4 13.1 343 9.6
2003-03-18 08:25:28 51°18.013 2°52.178 354.5 13.1 343 9.6
2003-03-18 08:25:34 51°18.033 2°52.168 354.1 13.1 343 9.7
2003-03-18 08:25:38 51°18.047 2°52.162 354.1 13.1 343 9.7
2003-03-18 08:25:44 51°18.068 2°52.152 354.3 13.1 343 9.6
2003-03-18 08:25:48 51°18.082 2°52.146 354.5 13.1 343 9.7
2003-03-18 08:25:54 51°18.103 2°52.137 354.5 13.1 343 9.7
2003-03-18 08:25:58 51°18.117 2°52.131 354.8 13 344 9.8
2003-03-18 08:26:04 51°18.138 2°52.121 354.8 13.1 344 9.8
2003-03-18 08:26:08 51°18.152 2°52.114 354.9 13.1 344 9.9
2003-03-18 08:26:14 51°18.173 2°52.104 354.9 13.1 344 9.9
2003-03-18 08:26:18 51°18.187 2°52.097 354.7 13.1 343 9.9
2003-03-18 08:26:24 51°18.207 2°52.087 354.5 13.1 343 10
2003-03-18 08:26:29 51°18.225 2°52.079 354.3 13.1 343 10
2003-03-18 08:26:34 51°18.242 2°52.07 354.1 13.1 343 10.1
2003-03-18 08:26:38 51°18.256 2°52.063 354.2 13.1 343 10.2
2003-03-18 08:26:44 51°18.277 2°52.053 354.7 13.1 343 10.2
2003-03-18 08:26:48 51°18.291 2°52.045 354.4 13.2 343 10.2
2003-03-18 08:26:54 51°18.312 2°52.034 354 13.1 342 10.3
2003-03-18 08:26:58 51°18.326 2°52.026 353.9 13.1 342 10.3
2003-03-18 08:27:04 51°18.346 2°52.016 354.1 13.2 342 10.4
2003-03-18 08:27:09 51°18.364 2°52.008 354.5 13.1 343 10.5
2003-03-18 08:27:14 51°18.381 2°52.001 354.9 13.1 343 10.5
2003-03-18 08:27:18 51°18.395 2°51.994 355 13.2 343 10.6
2003-03-18 08:27:23 51°18.413 2°51.985 354.4 13.2 343 10.7
2003-03-18 08:27:28 51°18.43 2°51.976 354 13.2 342 10.8
2003-03-18 08:27:34 51°18.451 2°51.965 353.9 13.2 342 10.9
2003-03-18 08:27:38 51°18.465 2°51.958 354.1 13.1 342 10.9
2003-03-18 08:27:44 51°18.486 2°51.947 353.8 13.2 342 11.1
2003-03-18 08:27:49 51°18.503 2°51.937 353.9 13.2 342 11.2
2003-03-18 08:27:54 51°18.521 2°51.927 353.6 13.2 341 11.3
2003-03-18 08:27:58 51°18.534 2°51.919 353.8 13.1 341 11.3
2003-03-18 08:28:04 51°18.556 2°51.909 354.2 13.1 341 11.5
2003-03-18 08:28:08 51°18.57 2°51.903 354.4 13.1 342 11.5
2003-03-18 08:28:14 51°18.591 2°51.892 354.6 13.1 342 11.7
2003-03-18 08:28:18 51°18.605 2°51.885 354.6 13 342 11.8
2003-03-18 08:28:24 51°18.626 2°51.874 354.5 13 342 11.9
2003-03-18 08:28:28 51°18.639 2°51.867 354.2 13 342 11.9
2003-03-18 08:28:34 51°18.66 2°51.856 354.3 13 342 12
2003-03-18 08:28:38 51°18.674 2°51.848 354.1 13 341 12.1
2003-03-18 08:28:44 51°18.694 2°51.837 354.1 13 341 12.3
2003-03-18 08:28:49 51°18.711 2°51.827 353.9 13 341 12.4
2003-03-18 08:28:54 51°18.728 2°51.818 354 13 341 12.5
2003-03-18 08:28:58 51°18.741 2°51.81 354 13 341 12.6
2003-03-18 08:29:02 51°18.755 2°51.803 353.9 13 341 12.7
2003-03-18 08:29:08 51°18.776 2°51.791 353.9 12.9 341 12.8
2003-03-18 08:29:14 51°18.796 2°51.78 354.1 12.9 341 12.8
2003-03-18 08:29:18 51°18.81 2°51.773 354.1 13 340 12.9
2003-03-18 08:29:22 51°18.824 2°51.765 354.1 12.9 340 13
2003-03-18 08:29:28 51°18.844 2°51.754 354.1 12.9 340 13
2003-03-18 08:29:34 51°18.865 2°51.743 354.1 12.9 341 13.1
2003-03-18 08:29:38 51°18.879 2°51.736 354.1 12.9 341 13.1
2003-03-18 08:29:44 51°18.9 2°51.726 354.6 12.9 342 13.5
2003-03-18 08:29:48 51°18.914 2°51.718 354.8 12.9 342 13.4
2003-03-18 08:29:52 51°18.928 2°51.711 354.4 12.9 341 13.4
2003-03-18 08:29:58 51°18.949 2°51.699 353.8 13 341 13.5
2003-03-18 08:30:02 51°18.963 2°51.691 353.7 13 340 13.6
2003-03-18 08:30:08 51°18.983 2°51.679 354 13 340 13.8
2003-03-18 08:30:14 51°19.003 2°51.668 354.1 13.1 340 14.1
2003-03-18 08:30:18 51°19.017 2°51.66 354.1 13.1 340 14.2
2003-03-18 08:30:23 51°19.034 2°51.651 354.3 13.1 341 14.2
2003-03-18 08:30:28 51°19.051 2°51.642 354.3 13.1 341 14.4
2003-03-18 08:30:33 51°19.068 2°51.632 354.2 13.1 341 14.5
2003-03-18 08:30:38 51°19.086 2°51.622 354 13.1 340 14.5
2003-03-18 08:30:44 51°19.106 2°51.61 354.1 13.1 340 14.6
2003-03-18 08:30:48 51°19.12 2°51.603 354.2 13.1 340 14.5
2003-03-18 08:30:54 51°19.14 2°51.591 354.1 13.1 340 14.5
2003-03-18 08:30:58 51°19.154 2°51.583 354.1 13.1 340 14.4
2003-03-18 08:31:04 51°19.174 2°51.571 354.1 13.1 340 14.5
2003-03-18 08:31:09 51°19.191 2°51.561 354.1 13.1 340 14.5
2003-03-18 08:31:14 51°19.208 2°51.551 354 13.1 340 14.5
2003-03-18 08:31:18 51°19.222 2°51.544 354.1 13.1 340 14.5
2003-03-18 08:31:24 51°19.242 2°51.533 354.4 13.1 341 14.6
2003-03-18 08:31:29 51°19.258 2°51.524 354.7 13.1 341 14.6
2003-03-18 08:31:34 51°19.275 2°51.514 354.8 13.1 341 14.6
2003-03-18 08:31:38 51°19.289 2°51.506 354.1 13.1 340 14.6
2003-03-18 08:31:44 51°19.31 2°51.495 354.1 13.1 340 14.6
2003-03-18 08:31:48 51°19.323 2°51.486 354.1 13.2 340 14.6
2003-03-18 08:31:54 51°19.344 2°51.474 354.1 13.1 340 14.6
2003-03-18 08:31:58 51°19.357 2°51.467 354 13.1 340 14.6
2003-03-18 08:32:04 51°19.378 2°51.455 354.1 13.1 340 14.5
2003-03-18 08:32:08 51°19.392 2°51.446 354.4 13.1 340 14.5
2003-03-18 08:32:14 51°19.412 2°51.434 354.4 13.1 340 14.6
2003-03-18 08:32:18 51°19.426 2°51.426 354.2 13.1 340 14.4
2003-03-18 08:32:24 51°19.447 2°51.415 354.5 13.1 340 14.5
2003-03-18 08:32:28 51°19.461 2°51.407 354.5 13.1 340 14.4
2003-03-18 08:32:32 51°19.474 2°51.399 354.6 13.1 340 14.4
2003-03-18 08:32:38 51°19.495 2°51.388 354.6 13.1 340 14.3
2003-03-18 08:32:44 51°19.516 2°51.377 354.4 13.1 341 14.3
2003-03-18 08:32:49 51°19.533 2°51.368 354.7 13.1 341 14.3
2003-03-18 08:32:53 51°19.547 2°51.361 354.7 13.1 342 14.3
2003-03-18 08:32:58 51°19.564 2°51.351 354.7 13.1 342 14.2
2003-03-18 08:33:04 51°19.585 2°51.341 354.9 13.1 342 14.2
2003-03-18 08:33:08 51°19.599 2°51.334 355.3 13.1 343 14.2
2003-03-18 08:33:14 51°19.62 2°51.323 354.8 13.1 343 14.1
2003-03-18 08:33:18 51°19.634 2°51.316 354.5 13.2 342 14
2003-03-18 08:33:22 51°19.647 2°51.309 353.9 13.2 341 14
2003-03-18 08:33:29 51°19.671 2°51.295 353.4 13.2 341 14
2003-03-18 08:33:34 51°19.688 2°51.284 353.7 13.2 340 13.8
2003-03-18 08:33:39 51°19.705 2°51.274 354 13.2 340 13.7
2003-03-18 08:33:44 51°19.723 2°51.265 354.3 13.2 341 13.6
2003-03-18 08:33:49 51°19.74 2°51.256 354.8 13.2 341 13.5
2003-03-18 08:33:53 51°19.754 2°51.248 354.4 13.1 341 13.3
2003-03-18 08:33:59 51°19.775 2°51.237 354.1 13.1 341 13.2
2003-03-18 08:34:04 51°19.792 2°51.227 354.2 13.1 340 12.8
2003-03-18 08:34:08 51°19.806 2°51.22 354.5 13.1 340 12.5
2003-03-18 08:34:14 51°19.827 2°51.209 354.7 13.1 341 12.1
2003-03-18 08:34:18 51°19.841 2°51.202 354.9 13.1 341 11.6
2003-03-18 08:34:24 51°19.862 2°51.191 354.9 13 342 11.3
2003-03-18 08:34:29 51°19.879 2°51.183 355.3 13 343 11.3
2003-03-18 08:34:34 51°19.896 2°51.176 355.7 13 344 11.2
2003-03-18 08:34:38 51°19.91 2°51.17 355.3 13 344 11.4
2003-03-18 08:34:44 51°19.931 2°51.16 354.9 13.1 344 11.7
2003-03-18 08:34:48 51°19.945 2°51.153 354.2 13.1 343 12
2003-03-18 08:34:53 51°19.962 2°51.144 353.6 13.2 342 12
2003-03-18 08:34:58 51°19.98 2°51.135 353.3 13.3 341 11.9
2003-03-18 08:35:04 51°20.001 2°51.123 353.5 13.3 341 11.8
2003-03-18 08:35:08 51°20.015 2°51.116 353.8 13.3 341 11.9
2003-03-18 08:35:14 51°20.036 2°51.104 353.7 13.3 341 11.9
2003-03-18 08:35:18 51°20.05 2°51.097 354.1 13.3 341 12
2003-03-18 08:35:24 51°20.07 2°51.086 354.3 13.3 342 12.2
2003-03-18 08:35:28 51°20.084 2°51.079 354.1 13.3 342 12.5
2003-03-18 08:35:32 51°20.099 2°51.073 354.2 13.3 342 12.8
2003-03-18 08:35:38 51°20.12 2°51.062 354.5 13.3 342 13.1
2003-03-18 08:35:44 51°20.141 2°51.051 354.2 13.4 341 13.1
2003-03-18 08:35:48 51°20.155 2°51.043 354 13.4 341 13.2
2003-03-18 08:35:53 51°20.173 2°51.033 353.9 13.5 341 13.2
2003-03-18 08:35:58 51°20.19 2°51.024 353.9 13.5 341 13.2
2003-03-18 08:36:04 51°20.211 2°51.012 354.4 13.4 341 13.3
2003-03-18 08:36:08 51°20.225 2°51.004 354.3 13.4 341 13.3
2003-03-18 08:36:14 51°20.246 2°50.992 354.4 13.4 342 13.4
2003-03-18 08:36:18 51°20.26 2°50.985 354.9 13.3 342 13.5
2003-03-18 08:36:24 51°20.281 2°50.974 355.1 13.4 343 13.5
2003-03-18 08:36:28 51°20.295 2°50.967 354.9 13.4 342 13.6
2003-03-18 08:36:32 51°20.31 2°50.96 354.4 13.4 342 13.7
2003-03-18 08:36:38 51°20.331 2°50.949 354.1 13.4 341 13.7
2003-03-18 08:36:44 51°20.352 2°50.936 353.7 13.5 341 13.6
2003-03-18 08:36:49 51°20.37 2°50.927 353.9 13.5 341 13.7
2003-03-18 08:36:53 51°20.384 2°50.92 354.2 13.5 341 13.6
2003-03-18 08:36:59 51°20.405 2°50.908 354.4 13.5 341 13.6
2003-03-18 08:37:04 51°20.422 2°50.898 354.5 13.4 341 13.7
2003-03-18 08:37:08 51°20.436 2°50.89 354.8 13.4 341 13.8
2003-03-18 08:37:13 51°20.454 2°50.881 354.7 13.5 341 14.3
2003-03-18 08:37:18 51°20.472 2°50.872 354.4 13.5 341 14.7
2003-03-18 08:37:24 51°20.493 2°50.861 354.2 13.5 341 15
2003-03-18 08:37:29 51°20.511 2°50.851 353.9 13.5 340 15.4
2003-03-18 08:37:34 51°20.529 2°50.841 353.8 13.5 340 15.8
2003-03-18 08:37:38 51°20.544 2°50.833 353.8 13.5 340 16
2003-03-18 08:37:42 51°20.558 2°50.825 354 13.5 340 16.4
2003-03-18 08:37:49 51°20.583 2°50.81 354.1 13.5 340 16.7
2003-03-18 08:37:53 51°20.597 2°50.802 353.9 13.6 340 17
2003-03-18 08:37:58 51°20.615 2°50.792 353.9 13.6 340 17.3
2003-03-18 08:38:04 51°20.636 2°50.78 353.8 13.5 340 17.7
2003-03-18 08:38:08 51°20.65 2°50.771 353.9 13.5 340 17.9
2003-03-18 08:38:14 51°20.671 2°50.759 354.2 13.5 341 18.1
2003-03-18 08:38:18 51°20.686 2°50.751 354.2 13.5 340 18.5
2003-03-18 08:38:24 51°20.707 2°50.74 354.2 13.5 340 18.7
2003-03-18 08:38:28 51°20.721 2°50.732 354 13.5 340 19
2003-03-18 08:38:32 51°20.735 2°50.725 354 13.5 340 19.3
2003-03-18 08:38:38 51°20.757 2°50.713 354 13.5 340 19.5
2003-03-18 08:38:44 51°20.778 2°50.7 354.1 13.5 340 19.7
2003-03-18 08:38:49 51°20.795 2°50.69 354.2 13.5 340 19.9
2003-03-18 08:38:54 51°20.813 2°50.68 354 13.5 340 20.1
2003-03-18 08:38:58 51°20.826 2°50.673 354.3 13.5 340 20.4
2003-03-18 08:39:04 51°20.847 2°50.66 354.2 13.5 340 20.6
2003-03-18 08:39:08 51°20.861 2°50.652 354.2 13.5 340 20.9
2003-03-18 08:39:14 51°20.882 2°50.639 354.1 13.5 340 21.2
2003-03-18 08:39:18 51°20.896 2°50.631 354.1 13.5 340 21.3
2003-03-18 08:39:24 51°20.916 2°50.617 354.1 13.5 340 21.6
2003-03-18 08:39:29 51°20.934 2°50.608 354.1 13.5 340 21.7
2003-03-18 08:39:34 51°20.952 2°50.598 354.1 13.5 340 21.8
2003-03-18 08:39:38 51°20.966 2°50.59 354 13.5 340 22.2
2003-03-18 08:39:42 51°20.98 2°50.58 353.8 13.5 339 22.1
2003-03-18 08:39:49 51°21.004 2°50.564 354.1 13.5 340 22.4
2003-03-18 08:39:53 51°21.017 2°50.555 354.3 13.5 340 22.3
2003-03-18 08:39:58 51°21.035 2°50.543 354 13.5 340 22.6
2003-03-18 08:40:04 51°21.056 2°50.531 353.9 13.6 340 22.7
2003-03-18 08:40:08 51°21.07 2°50.522 354.1 13.6 340 22.6
2003-03-18 08:40:14 51°21.09 2°50.507 354.1 13.6 340 22.7
2003-03-18 08:40:18 51°21.104 2°50.498 353.9 13.6 340 22.6
2003-03-18 08:40:24 51°21.125 2°50.485 353.8 13.6 339 22.7
2003-03-18 08:40:29 51°21.143 2°50.474 354.2 13.5 339 22.7
2003-03-18 08:40:33 51°21.157 2°50.465 354.4 13.5 339 22.6
2003-03-18 08:40:38 51°21.175 2°50.456 354.5 13.6 340 22.7
2003-03-18 08:40:44 51°21.196 2°50.443 354.5 13.6 339 22.6
2003-03-18 08:40:49 51°21.213 2°50.432 354.5 13.6 339 22.8
2003-03-18 08:40:54 51°21.231 2°50.422 354.5 13.6 339 22.7
2003-03-18 08:40:58 51°21.246 2°50.414 354.2 13.7 339 22.7
2003-03-18 08:41:04 51°21.267 2°50.401 354.5 13.7 339 22.6
2003-03-18 08:41:08 51°21.281 2°50.392 354.4 13.7 339 22.6
2003-03-18 08:41:14 51°21.303 2°50.38 354.3 13.7 340 22.7
2003-03-18 08:41:18 51°21.317 2°50.372 354.8 13.6 340 22.9
2003-03-18 08:41:22 51°21.331 2°50.364 354.7 13.6 340 22.7
2003-03-18 08:41:29 51°21.356 2°50.35 354.3 13.6 340 22.7
2003-03-18 08:41:34 51°21.374 2°50.339 354.1 13.6 339 22.6
2003-03-18 08:41:38 51°21.388 2°50.33 354.1 13.6 339 22.5
2003-03-18 08:41:42 51°21.402 2°50.322 354.1 13.7 339 22.4
2003-03-18 08:41:48 51°21.423 2°50.309 354.1 13.7 339 22.2
2003-03-18 08:41:54 51°21.445 2°50.297 354.3 13.6 340 22.2
2003-03-18 08:41:58 51°21.459 2°50.289 354.6 13.6 340 22.2
2003-03-18 08:42:04 51°21.481 2°50.279 354.7 13.5 340 22.1
2003-03-18 08:42:08 51°21.495 2°50.271 355 13.5 341 22
2003-03-18 08:42:12 51°21.509 2°50.264 355 13.5 341 22.3
2003-03-18 08:42:18 51°21.53 2°50.253 354.9 13.5 341 22.3
2003-03-18 08:42:24 51°21.551 2°50.242 355.1 13.4 342 22.5
2003-03-18 08:42:29 51°21.569 2°50.232 354.8 13.4 341 22.5
2003-03-18 08:42:34 51°21.586 2°50.223 354.4 13.4 341 22.4
2003-03-18 08:42:38 51°21.6 2°50.215 354.1 13.4 341 22.3
2003-03-18 08:42:44 51°21.621 2°50.204 354.1 13.3 341 22.1
2003-03-18 08:42:48 51°21.635 2°50.196 354 13.3 341 22
2003-03-18 08:42:54 51°21.657 2°50.185 354.1 13.3 341 22
2003-03-18 08:42:58 51°21.67 2°50.178 354.2 13.3 341 22
2003-03-18 08:43:04 51°21.691 2°50.166 354.2 13.2 341 22
2003-03-18 08:43:09 51°21.708 2°50.157 354.2 13.2 341 21.7
2003-03-18 08:43:14 51°21.725 2°50.148 354 13.2 341 21.7
2003-03-18 08:43:18 51°21.739 2°50.14 353.7 13.2 341 21.6
2003-03-18 08:43:24 51°21.759 2°50.128 354.1 13.2 340 21.8
2003-03-18 08:43:28 51°21.773 2°50.119 354.4 13.2 341 21.7
2003-03-18 08:43:33 51°21.79 2°50.11 354.2 13.2 341 21.6
2003-03-18 08:43:39 51°21.81 2°50.098 354.3 13.1 341 21.7
2003-03-18 08:43:44 51°21.828 2°50.089 354.4 13.1 341 21.8
2003-03-18 08:43:48 51°21.841 2°50.081 354.4 13.1 341 21.7
2003-03-18 08:43:54 51°21.862 2°50.07 354.4 13.1 341 21.9
2003-03-18 08:43:58 51°21.876 2°50.063 354.2 13.1 341 22
2003-03-18 08:44:04 51°21.896 2°50.052 354.7 13.1 342 22
2003-03-18 08:44:08 51°21.91 2°50.045 354.4 13.1 341 22
2003-03-18 08:44:14 51°21.931 2°50.034 354.6 13.1 342 22.2
2003-03-18 08:44:18 51°21.945 2°50.027 354.5 13.1 342 22.3
2003-03-18 08:44:24 51°21.965 2°50.016 354.6 13 343 22.3
2003-03-18 08:44:29 51°21.983 2°50.008 354.4 13 342 22.6
2003-03-18 08:44:34 51°22 2°49.999 354.6 13 342 22.6
2003-03-18 08:44:38 51°22.014 2°49.992 354.3 13.1 342 22.6
2003-03-18 08:44:44 51°22.035 2°49.981 354 13.1 342 22.6
2003-03-18 08:44:48 51°22.049 2°49.974 353.8 13.2 341 22.7
2003-03-18 08:44:54 51°22.07 2°49.963 353.9 13.2 342 22.8
2003-03-18 08:44:58 51°22.083 2°49.955 354.1 13.2 341 22.8
2003-03-18 08:45:02 51°22.097 2°49.948 353.7 13.2 341 22.8
2003-03-18 08:45:08 51°22.118 2°49.937 353.9 13.2 341 22.9
2003-03-18 08:45:14 51°22.139 2°49.925 353.7 13.2 340 22.8
2003-03-18 08:45:18 51°22.153 2°49.917 354.1 13.2 341 22.9
2003-03-18 08:45:23 51°22.17 2°49.907 354 13.2 341 22.9
2003-03-18 08:45:28 51°22.187 2°49.898 354.1 13.2 341 22.9
2003-03-18 08:45:34 51°22.208 2°49.886 354.5 13.2 342 22.8
2003-03-18 08:45:38 51°22.222 2°49.879 354.1 13.2 342 22.7
2003-03-18 08:45:43 51°22.239 2°49.87 354.2 13.2 342 22.2
2003-03-18 08:45:48 51°22.257 2°49.861 354.7 13.2 343 22.5
2003-03-18 08:45:53 51°22.274 2°49.853 354.9 13.2 343 22.1
2003-03-18 08:45:59 51°22.295 2°49.843 354.8 13.2 344 22.4
2003-03-18 08:46:04 51°22.313 2°49.835 354.7 13.2 344 22.6
2003-03-18 08:46:09 51°22.331 2°49.827 354.1 13.2 344 22.8
2003-03-18 08:46:14 51°22.348 2°49.818 354.1 13.2 343 22.9
2003-03-18 08:46:18 51°22.362 2°49.811 353.9 13.2 343 22.9
2003-03-18 08:46:24 51°22.383 2°49.801 353.9 13.2 343 22.9
2003-03-18 08:46:29 51°22.401 2°49.792 354.1 13.2 343 22.9
2003-03-18 08:46:33 51°22.415 2°49.786 354.3 13.2 344 22.4
2003-03-18 08:46:38 51°22.433 2°49.778 354.4 13.2 344 22.1
2003-03-18 08:46:44 51°22.454 2°49.768 354.1 13.2 343 21.6
2003-03-18 08:46:49 51°22.472 2°49.759 354.1 13.2 343 20.9
2003-03-18 08:46:53 51°22.486 2°49.752 353.9 13.2 343 20.2
2003-03-18 08:46:58 51°22.503 2°49.744 354.1 13.2 343 20.2
2003-03-18 08:47:03 51°22.521 2°49.735 354.4 13.2 343 19.9
2003-03-18 08:47:09 51°22.542 2°49.726 354.6 13.1 344 21.5
2003-03-18 08:47:14 51°22.559 2°49.718 354.4 13.2 344 20.9
2003-03-18 08:47:18 51°22.573 2°49.711 354.2 13.2 343 20.2
2003-03-18 08:47:24 51°22.595 2°49.701 354.1 13.2 343 19.8
2003-03-18 08:47:28 51°22.608 2°49.695 354 13.2 343 19.2
2003-03-18 08:47:34 51°22.629 2°49.685 354 13.2 343 18.6
2003-03-18 08:47:38 51°22.643 2°49.679 354.4 13.1 343 17.7
2003-03-18 08:47:44 51°22.664 2°49.669 354.1 13.1 343 16.8
2003-03-18 08:47:48 51°22.678 2°49.662 354 13 343 16.3
2003-03-18 08:47:54 51°22.699 2°49.652 353.8 13 343 15.6
2003-03-18 08:47:59 51°22.716 2°49.644 353.9 13 343 16.6
2003-03-18 08:48:04 51°22.733 2°49.636 354.2 13 343 16.1
2003-03-18 08:48:08 51°22.747 2°49.63 354.5 13 344 15.5
2003-03-18 08:48:14 51°22.768 2°49.62 354.2 13 343 14.4
2003-03-18 08:48:18 51°22.781 2°49.613 354.1 12.9 343 12.3
2003-03-18 08:48:24 51°22.802 2°49.602 353.4 12.9 342 14.8
2003-03-18 08:48:29 51°22.819 2°49.594 353.6 12.8 342 15.7
2003-03-18 08:48:34 51°22.836 2°49.586 354.6 12.8 343 15.3
2003-03-18 08:48:38 51°22.85 2°49.58 354.4 12.9 344 14.9
2003-03-18 08:48:44 51°22.87 2°49.571 354.6 12.9 344 15.8
2003-03-18 08:48:49 51°22.887 2°49.563 354.4 12.9 344 15.6
2003-03-18 08:48:54 51°22.904 2°49.555 354.3 12.9 343 14.8
2003-03-18 08:48:58 51°22.918 2°49.548 354.3 12.9 343 12.6
2003-03-18 08:49:04 51°22.938 2°49.538 354.3 12.9 343 14.5
2003-03-18 08:49:08 51°22.952 2°49.531 354.1 12.8 343 15.5
2003-03-18 08:49:14 51°22.972 2°49.521 353.9 12.8 343 15.9
2003-03-18 08:49:18 51°22.986 2°49.515 354.3 12.8 343 16
2003-03-18 08:49:24 51°23.006 2°49.505 354.2 12.9 343 16.1
2003-03-18 08:49:28 51°23.02 2°49.498 354.2 12.9 343 16.3
2003-03-18 08:49:34 51°23.04 2°49.488 354.1 12.9 343 16
2003-03-18 08:49:38 51°23.054 2°49.481 354 12.8 343 15.2
2003-03-18 08:49:44 51°23.074 2°49.47 354.1 12.8 342 14.7
2003-03-18 08:49:49 51°23.091 2°49.462 353.6 12.8 342 14.1
2003-03-18 08:49:54 51°23.108 2°49.453 353.5 12.8 342 14.4
2003-03-18 08:49:58 51°23.121 2°49.446 354 12.8 342 15.4
2003-03-18 08:50:04 51°23.142 2°49.435 353.7 12.9 342 15.1
2003-03-18 08:50:09 51°23.159 2°49.427 354.2 12.9 342 15.6
2003-03-18 08:50:14 51°23.176 2°49.417 354.1 12.9 342 16.5
2003-03-18 08:50:18 51°23.19 2°49.41 354.1 12.9 342 17.3
2003-03-18 08:50:24 51°23.21 2°49.4 354.4 12.9 342 17.7
2003-03-18 08:50:28 51°23.224 2°49.393 354.5 12.9 342 18.2
2003-03-18 08:50:34 51°23.244 2°49.382 354.5 12.9 342 18.7
2003-03-18 08:50:38 51°23.258 2°49.375 354.5 12.9 342 19
2003-03-18 08:50:44 51°23.278 2°49.364 354.2 13 342 19.3
2003-03-18 08:50:49 51°23.295 2°49.355 354.4 13 342 19.5
2003-03-18 08:50:54 51°23.313 2°49.347 354.7 13 342 19.7
2003-03-18 08:50:58 51°23.326 2°49.339 354.2 13 342 19.7
2003-03-18 08:51:04 51°23.347 2°49.329 354.4 13 342 19.9
2003-03-18 08:51:08 51°23.361 2°49.322 354.5 13 342 20.2
2003-03-18 08:51:14 51°23.381 2°49.311 354.4 13 342 20.5
2003-03-18 08:51:18 51°23.394 2°49.304 354.2 13 341 20.5
2003-03-18 08:51:24 51°23.415 2°49.292 353.6 13 341 19.5
2003-03-18 08:51:28 51°23.429 2°49.284 353.7 13 341 19.6
2003-03-18 08:51:34 51°23.449 2°49.273 354.1 13 341 20.2
2003-03-18 08:51:38 51°23.463 2°49.266 354.2 13 341 20.5
2003-03-18 08:51:44 51°23.484 2°49.256 354.5 13 341 20.9
2003-03-18 08:51:48 51°23.498 2°49.248 354.6 12.9 342 21
2003-03-18 08:51:54 51°23.518 2°49.237 355.2 12.9 342 21.1
2003-03-18 08:51:58 51°23.531 2°49.231 356.3 13 343 21.4
2003-03-18 08:52:04 51°23.552 2°49.221 356.7 12.9 344 21.4
2003-03-18 08:52:09 51°23.569 2°49.214 357.4 12.9 345 21.7
2003-03-18 08:52:14 51°23.586 2°49.206 357.8 12.9 344 22
2003-03-18 08:52:18 51°23.601 2°49.2 358.2 13 344 21.9
2003-03-18 08:52:24 51°23.621 2°49.191 358.3 13 344 22.2
2003-03-18 08:52:28 51°23.635 2°49.186 358.7 12.9 345 22.1
2003-03-18 08:52:34 51°23.656 2°49.176 358.4 12.9 345 22
2003-03-18 08:52:38 51°23.67 2°49.17 358.3 12.9 345 21.7
2003-03-18 08:52:44 51°23.69 2°49.162 359.2 13 346 20.5
2003-03-18 08:52:49 51°23.708 2°49.156 359.7 13 346 21.4
2003-03-18 08:52:54 51°23.725 2°49.149 0.1 12.9 347 21.9
2003-03-18 08:52:58 51°23.739 2°49.144 0.3 12.9 347 22.3
2003-03-18 08:53:04 51°23.76 2°49.136 0.7 12.9 347 22.3
2003-03-18 08:53:08 51°23.773 2°49.132 1 12.9 348 22.2
2003-03-18 08:53:14 51°23.794 2°49.125 0.9 12.9 348 21
2003-03-18 08:53:18 51°23.808 2°49.12 0.7 12.9 348 20.8
2003-03-18 08:53:24 51°23.829 2°49.112 0.7 12.9 348 21.4
2003-03-18 08:53:28 51°23.843 2°49.108 0.8 12.9 348 21.8
2003-03-18 08:53:34 51°23.864 2°49.1 0.7 12.9 348 21.8
2003-03-18 08:53:38 51°23.878 2°49.096 0.6 12.9 348 21.4
2003-03-18 08:53:44 51°23.899 2°49.088 0.5 12.9 347 21.1
2003-03-18 08:53:48 51°23.913 2°49.083 0.4 12.9 347 21.8
2003-03-18 08:53:54 51°23.934 2°49.075 0.6 12.9 347 22.1
2003-03-18 08:53:58 51°23.948 2°49.07 0.8 12.9 347 22.2
2003-03-18 08:54:04 51°23.969 2°49.064 0.8 12.9 348 22.2
2003-03-18 08:54:09 51°23.986 2°49.058 1.3 12.9 348 22.2
2003-03-18 08:54:14 51°24.004 2°49.053 1.4 12.8 349 22.1
2003-03-18 08:54:18 51°24.018 2°49.048 1.4 12.9 349 22.4
2003-03-18 08:54:24 51°24.039 2°49.042 1.2 12.9 349 22.3
2003-03-18 08:54:29 51°24.056 2°49.036 0.6 12.9 348 22.2
2003-03-18 08:54:34 51°24.073 2°49.032 1.9 12.8 350 22.4
2003-03-18 08:54:38 51°24.087 2°49.028 2.1 12.9 350 22.4
2003-03-18 08:54:44 51°24.108 2°49.023 2.8 12.9 351 22.5
2003-03-18 08:54:49 51°24.126 2°49.018 3 12.8 351 22.8
2003-03-18 08:54:54 51°24.144 2°49.014 3.3 12.8 351 22.7
2003-03-18 08:54:58 51°24.158 2°49.011 3.7 12.8 352 22.6
2003-03-18 08:55:04 51°24.179 2°49.007 4.3 12.8 352 22.2
2003-03-18 08:55:09 51°24.196 2°49.002 4 12.8 352 21.7
2003-03-18 08:55:14 51°24.214 2°48.998 3.5 12.8 351 22.4
2003-03-18 08:55:18 51°24.228 2°48.995 3.3 12.8 351 22.7
2003-03-18 08:55:24 51°24.249 2°48.99 3.3 12.8 351 22.5
2003-03-18 08:55:28 51°24.263 2°48.987 3.6 12.8 352 21.9
2003-03-18 08:55:34 51°24.284 2°48.982 3.7 12.8 352 20.5
2003-03-18 08:55:38 51°24.298 2°48.978 3.4 12.9 351 20.2
2003-03-18 08:55:44 51°24.319 2°48.973 3 12.9 351 20.9
2003-03-18 08:55:48 51°24.333 2°48.969 3.3 12.9 351 21.7
2003-03-18 08:55:54 51°24.354 2°48.964 3.6 12.9 351 22.2
2003-03-18 08:55:58 51°24.369 2°48.961 4.3 12.8 352 22.2
2003-03-18 08:56:04 51°24.39 2°48.957 4.8 12.8 353 22.2
2003-03-18 08:56:09 51°24.407 2°48.954 5 12.8 353 22.2
2003-03-18 08:56:14 51°24.425 2°48.95 4.7 12.8 353 21.9
2003-03-18 08:56:18 51°24.439 2°48.947 4.6 12.8 353 21.9
2003-03-18 08:56:22 51°24.453 2°48.944 4.3 12.9 352 22
2003-03-18 08:56:28 51°24.474 2°48.938 4.3 12.9 352 21.2
2003-03-18 08:56:34 51°24.495 2°48.934 4.5 12.9 352 20.9
2003-03-18 08:56:38 51°24.51 2°48.931 4.3 12.9 352 20.9
2003-03-18 08:56:44 51°24.531 2°48.926 4.1 12.9 352 21.9
2003-03-18 08:56:49 51°24.548 2°48.921 4.5 12.9 352 21.7
2003-03-18 08:56:53 51°24.562 2°48.918 4.6 12.9 352 21.2
2003-03-18 08:56:58 51°24.58 2°48.914 4.2 12.9 351 20.7
2003-03-18 08:57:02 51°24.594 2°48.912 4.8 12.8 352 20.1
2003-03-18 08:57:08 51°24.615 2°48.907 4.7 12.8 353 18.9
2003-03-18 08:57:14 51°24.636 2°48.902 4.3 12.9 352 20
2003-03-18 08:57:18 51°24.651 2°48.898 4.1 12.9 351 20.7
2003-03-18 08:57:24 51°24.672 2°48.894 4.3 12.9 352 21.4
2003-03-18 08:57:28 51°24.686 2°48.891 4.3 12.9 352 21.4
2003-03-18 08:57:34 51°24.707 2°48.887 5 12.9 353 21.1
2003-03-18 08:57:38 51°24.721 2°48.883 4.5 12.9 353 20.4
2003-03-18 08:57:44 51°24.743 2°48.879 4.3 12.9 353 20.1
2003-03-18 08:57:49 51°24.761 2°48.875 4.3 13 352 20.2
2003-03-18 08:57:54 51°24.778 2°48.871 4.3 13 353 20.1
2003-03-18 08:57:58 51°24.793 2°48.868 4.3 13 352 20.5
2003-03-18 08:58:04 51°24.814 2°48.865 4.8 13 354 20.2
2003-03-18 08:58:08 51°24.828 2°48.862 4.9 13 354 21.2
2003-03-18 08:58:14 51°24.85 2°48.858 4.7 13 354 20.8
2003-03-18 08:58:18 51°24.864 2°48.855 4.1 13 353 21.6
2003-03-18 08:58:24 51°24.886 2°48.851 4 13.1 353 21.9
2003-03-18 08:58:28 51°24.9 2°48.848 4.3 13.1 353 22.1
2003-03-18 08:58:34 51°24.921 2°48.844 4.8 13.1 353 22.4
2003-03-18 08:58:38 51°24.936 2°48.841 4.2 13.1 353 22.4
2003-03-18 08:58:42 51°24.95 2°48.838 4.3 13.1 353 22.6
2003-03-18 08:58:48 51°24.972 2°48.834 4.5 13.1 353 23.1
2003-03-18 08:58:54 51°24.993 2°48.83 4.2 13 353 23.6
2003-03-18 08:58:58 51°25.007 2°48.828 5 13 353 23.7
2003-03-18 08:59:04 51°25.029 2°48.823 4.3 13 353 23.7
2003-03-18 08:59:08 51°25.043 2°48.821 4.6 13 353 24
2003-03-18 08:59:14 51°25.065 2°48.817 4.6 13 353 24.1
2003-03-18 08:59:18 51°25.079 2°48.814 4.3 13 353 24.3
2003-03-18 08:59:24 51°25.1 2°48.809 4.3 13 353 24.5
2003-03-18 08:59:28 51°25.115 2°48.806 4.2 13 353 24.7
2003-03-18 08:59:34 51°25.136 2°48.802 4.3 13 353 24.8
2003-03-18 08:59:38 51°25.15 2°48.799 4.7 13 353 24.9
2003-03-18 08:59:44 51°25.172 2°48.795 4.6 13 353 24.9
2003-03-18 08:59:49 51°25.19 2°48.792 4.7 13 354 25.2
2003-03-18 08:59:54 51°25.207 2°48.788 4.2 13 353 25.3
2003-03-18 08:59:59 51°25.225 2°48.784 3.5 13 352 25.5
2003-03-18 09:00:04 51°25.243 2°48.777 1.1 13.1 350 25.6
2003-03-18 09:00:08 51°25.257 2°48.773 0.3 13.1 349 25.8
2003-03-18 09:00:14 51°25.278 2°48.765 359.3 13.1 347 26.1
2003-03-18 09:00:18 51°25.292 2°48.759 357.6 13.1 347 26.2
2003-03-18 09:00:24 51°25.313 2°48.749 355.9 13.2 345 26.2
2003-03-18 09:00:29 51°25.33 2°48.74 354.5 13.2 344 26.2
2003-03-18 09:00:34 51°25.347 2°48.731 354 13.2 342 26.5
2003-03-18 09:00:38 51°25.361 2°48.723 352.8 13.3 341 26.9
2003-03-18 09:00:44 51°25.381 2°48.711 351.2 13.3 340 27
2003-03-18 09:00:48 51°25.395 2°48.701 349.4 13.3 338 27.3
2003-03-18 09:00:54 51°25.415 2°48.689 349.6 13.3 338 27.1
2003-03-18 09:00:58 51°25.428 2°48.678 347.6 13.3 336 26.6
2003-03-18 09:01:03 51°25.445 2°48.667 347.5 13.3 335 26.1
2003-03-18 09:01:08 51°25.461 2°48.654 346.9 13.3 335 25.7
2003-03-18 09:01:14 51°25.481 2°48.639 346.8 13.3 335 25
2003-03-18 09:01:19 51°25.498 2°48.626 346.2 13.4 334 24.7
2003-03-18 09:01:24 51°25.514 2°48.612 345.8 13.4 334 24.3
2003-03-18 09:01:29 51°25.531 2°48.599 345.6 13.4 333 24
2003-03-18 09:01:34 51°25.548 2°48.586 346 13.4 334 23.9
2003-03-18 09:01:38 51°25.561 2°48.576 345.9 13.4 334 23.8
2003-03-18 09:01:44 51°25.581 2°48.561 346.2 13.4 334 23.7
2003-03-18 09:01:48 51°25.594 2°48.55 346.5 13.4 334 23.7
2003-03-18 09:01:53 51°25.611 2°48.538 346.7 13.3 335 23.7
2003-03-18 09:01:58 51°25.628 2°48.525 346.2 13.3 334 23.5
2003-03-18 09:02:04 51°25.648 2°48.51 346.2 13.3 335 23.4
2003-03-18 09:02:08 51°25.661 2°48.5 346.5 13.4 334 23.4
2003-03-18 09:02:12 51°25.675 2°48.49 346.5 13.3 335 23.3
2003-03-18 09:02:18 51°25.695 2°48.475 346.4 13.2 335 23.2
2003-03-18 09:02:23 51°25.71 2°48.464 347.8 12.6 336 23.1
2003-03-18 09:02:28 51°25.725 2°48.454 349.5 12 337 23.2
2003-03-18 09:02:34 51°25.742 2°48.443 351.1 11.5 338 23.2
2003-03-18 09:02:38 51°25.753 2°48.436 351.1 10.9 338 23.3
2003-03-18 09:02:44 51°25.769 2°48.425 350.7 10.6 338 23.3
2003-03-18 09:02:49 51°25.782 2°48.416 349.8 10.4 337 23.3
2003-03-18 09:02:54 51°25.794 2°48.406 348.5 10.3 336 23.3
2003-03-18 09:02:58 51°25.805 2°48.399 348.4 10.1 335 23.2
2003-03-18 09:03:04 51°25.82 2°48.388 349.5 10 335 23.2
2003-03-18 09:03:08 51°25.83 2°48.382 350.9 9.9 337 23.2
2003-03-18 09:03:14 51°25.844 2°48.373 353 9.6 339 23.2
2003-03-18 09:03:18 51°25.853 2°48.368 355.9 9.2 341 23.1
2003-03-18 09:03:23 51°25.864 2°48.364 359.5 8.5 345 23.2
2003-03-18 09:03:29 51°25.877 2°48.361 3.6 8 348 23.3
2003-03-18 09:03:34 51°25.886 2°48.36 7.3 7.4 352 23.3
2003-03-18 09:03:38 51°25.893 2°48.36 11.1 7 355 23.3
2003-03-18 09:03:44 51°25.904 2°48.361 15.1 6.6   23.4
2003-03-18 09:03:49 51°25.912 2°48.363 18.5 6.3 3 23.3
2003-03-18 09:03:54 51°25.92 2°48.365 23.2 5.9 7 23.2
2003-03-18 09:03:58 51°25.925 2°48.367 28.6 5.6 11 23.3
2003-03-18 09:04:02 51°25.93 2°48.371 33.9 5.1 21 23.3
2003-03-18 09:04:08 51°25.936 2°48.377 39.1 4.9 26 23.3
2003-03-18 09:04:14 51°25.942 2°48.384 44.3 4.6 34 23.1
2003-03-18 09:04:19 51°25.946 2°48.391 48.2 4.4 39 23.1
2003-03-18 09:04:23 51°25.95 2°48.396 50 4.3 43 23.3
2003-03-18 09:04:28 51°25.954 2°48.403 50.6 4.2 45 23.1
2003-03-18 09:04:34 51°25.959 2°48.41 50.6 4.2 46 23.2
2003-03-18 09:04:38 51°25.962 2°48.415 50.2 4.2 46 23.1
2003-03-18 09:04:44 51°25.966 2°48.423 49.9 4 46 23.1
2003-03-18 09:04:49 51°25.97 2°48.429 49.7 3.9 45 23.2
2003-03-18 09:04:54 51°25.973 2°48.435 49.3 3.6 45 23.2
2003-03-18 09:04:58 51°25.976 2°48.44 48.6 3.5 45 23.2
2003-03-18 09:05:03 51°25.98 2°48.445 47.9 3.3 44 23.2
2003-03-18 09:05:09 51°25.984 2°48.45 47.1 3.1 43 23.4
2003-03-18 09:05:13 51°25.987 2°48.452 46.4 2.8 42 23.4
2003-03-18 09:05:18 51°25.989 2°48.454 45.6 2.6 42 23.2
2003-03-18 09:05:23 51°25.991 2°48.456 45.3 2.1 42 23.4
2003-03-18 09:05:28 51°25.992 2°48.458 46.1 1.7 42 23.1
2003-03-18 09:05:34 51°25.993 2°48.46 48 0.9 43 23.1
2003-03-18 09:05:39 51°25.993 2°48.461 50 0.5 53 23.3
2003-03-18 09:05:44 51°25.992 2°48.462 51.9 0.4 60 23.3
2003-03-18 09:05:49 51°25.992 2°48.464 53.2 0.4 73 23.4
2003-03-18 09:05:54 51°25.993 2°48.465 54.4 0.3 71 23.5
2003-03-18 09:05:58 51°25.993 2°48.466 55.2 0.4 81 23.5
2003-03-18 09:06:04 51°25.992 2°48.467 56 0.4 87 23.6
2003-03-18 09:06:09 51°25.992 2°48.468 56.6 0.4 99 23.4
2003-03-18 09:06:14 51°25.992 2°48.469 57.3 0.4 99 23.3
2003-03-18 09:06:18 51°25.991 2°48.47 57.8 0.4 107 23.3
2003-03-18 09:06:24 51°25.991 2°48.471 57.9 0.3 114 23.4
2003-03-18 09:06:29 51°25.991 2°48.472 57.9 0.3 116 23.4
2003-03-18 09:06:34 51°25.99 2°48.473 57.7 0.3 123 23.3
2003-03-18 09:06:38 51°25.99 2°48.473 57.5 0.3 121 23.3
2003-03-18 09:06:43 51°25.99 2°48.474 56.9 0.2 120 23.3
2003-03-18 09:06:48 51°25.989 2°48.474 56.3 0.2 122 23.3
2003-03-18 09:06:54 51°25.989 2°48.474 55.8 0.2 126 23.4
2003-03-18 09:06:58 51°25.989 2°48.475 54.9 0.2 132 23.4
2003-03-18 09:07:04 51°25.989 2°48.475 54.2 0.2 136 23.5
2003-03-18 09:07:09 51°25.989 2°48.475 53.6 0.2 147 23.5
2003-03-18 09:07:14 51°25.989 2°48.475 52.9 0.2 153 23.5
2003-03-18 09:07:19 51°25.989 2°48.475 52.4 0.2 165 23.5
2003-03-18 09:07:24 51°25.988 2°48.476 51.8 0.2 164 23.4
2003-03-18 09:07:28 51°25.988 2°48.475 51 0.2 175 23.5
2003-03-18 09:07:33 51°25.988 2°48.474 50.4 0.1 237 23.5
2003-03-18 09:07:39 51°25.988 2°48.473 49.7 0.1 245 23.4
2003-03-18 09:07:44 51°25.987 2°48.472 49.1 0.1 214 23.4
2003-03-18 09:07:49 51°25.987 2°48.473 48.4 0.2 211 23.3
2003-03-18 09:07:52 51°25.987 2°48.473 47.5 0.2 209 23.2
2003-03-18 09:07:58 51°25.987 2°48.473 46.6 0.2 210 23.2
2003-03-18 09:08:04 51°25.987 2°48.472 45.8 0.2 205 23.2
2003-03-18 09:08:09 51°25.987 2°48.472 45.5 0.3 215 23.2
2003-03-18 09:08:14 51°25.987 2°48.471 45 0.3 225 23.1
2003-03-18 09:08:18 51°25.986 2°48.471 44.6 0.3 234 23.2
2003-03-18 09:08:24 51°25.986 2°48.47 44 0.3 236 23.4
2003-03-18 09:08:28 51°25.985 2°48.47 43.6 0.4 238 23.5
2003-03-18 09:08:33 51°25.985 2°48.469 43 0.4 240 23.5
2003-03-18 09:08:39 51°25.985 2°48.468 42.3 0.4 242 23.5
2003-03-18 09:08:44 51°25.985 2°48.468 41.6 0.4 245 23.4
2003-03-18 09:08:48 51°25.985 2°48.467 40.6 0.4 243 23.4
2003-03-18 09:08:54 51°25.984 2°48.465 39.5 0.4 244 23.3
2003-03-18 09:08:58 51°25.984 2°48.465 38.5 0.4 247 23.2
2003-03-18 09:09:04 51°25.984 2°48.464 37.7 0.4 250 23.2
2003-03-18 09:09:09 51°25.983 2°48.463 37.1 0.5 255 23.4
2003-03-18 09:09:14 51°25.983 2°48.462 36.9 0.5 256 23.5
2003-03-18 09:09:18 51°25.983 2°48.461 37 0.5 255 23.5
2003-03-18 09:09:24 51°25.982 2°48.46 37.5 0.5 249 23.5
2003-03-18 09:09:28 51°25.982 2°48.46 38.2 0.5 249 23.5
2003-03-18 09:09:34 51°25.982 2°48.459 39.3 0.5 244 23.3
2003-03-18 09:09:38 51°25.981 2°48.458 40.6 0.5 243 23.2
2003-03-18 09:09:44 51°25.981 2°48.457 41.9 0.5 245 23.2
2003-03-18 09:09:48 51°25.981 2°48.457 43.2 0.4 244 23.1
2003-03-18 09:09:54 51°25.98 2°48.456 44.1 0.4 238 23.2
2003-03-18 09:09:58 51°25.981 2°48.454 45 0.5 236 23.4
2003-03-18 09:10:04 51°25.98 2°48.453 45.4 0.5 236 23.4
2003-03-18 09:10:08 51°25.98 2°48.453 45.5 0.5 233 23.5
2003-03-18 09:10:14 51°25.98 2°48.452 45.5 0.4 228 23.4
2003-03-18 09:10:19 51°25.979 2°48.451 45.3 0.4 231 23.2
2003-03-18 09:10:24 51°25.979 2°48.45 45.1 0.5 240 23.1
2003-03-18 09:10:29 51°25.979 2°48.449 44.8 0.5 239 23.2
2003-03-18 09:10:34 51°25.978 2°48.448 44.5 0.4 236 23.2
2003-03-18 09:10:38 51°25.978 2°48.448 44 0.4 234 23.4
2003-03-18 09:10:44 51°25.978 2°48.447 43.5 0.5 236 23.4
2003-03-18 09:10:48 51°25.977 2°48.447 43 0.5 231 23.5
2003-03-18 09:10:53 51°25.977 2°48.446 42.2 0.5 248 23.4
2003-03-18 09:10:59 51°25.977 2°48.445 41.4 0.5 249 23.2
2003-03-18 09:11:04 51°25.976 2°48.444 40.3 0.5 245 23.2
2003-03-18 09:11:08 51°25.976 2°48.443 39.4 0.5 249 23.2
2003-03-18 09:11:12 51°25.976 2°48.442 38.4 0.5 252 23.2
2003-03-18 09:11:18 51°25.975 2°48.441 37.5 0.5 253 23.4
2003-03-18 09:11:23 51°25.975 2°48.44 36.9 0.5 255 23.5
2003-03-18 09:11:29 51°25.975 2°48.438 36.2 0.5 257 23.5
2003-03-18 09:11:34 51°25.975 2°48.438 35.5 0.5 260 23.4
2003-03-18 09:11:38 51°25.975 2°48.437 34.8 0.5 270 23.2
2003-03-18 09:11:44 51°25.975 2°48.436 34.5 0.5 279 23.1
2003-03-18 09:11:49 51°25.975 2°48.434 34.1 0.5 289 23.2
2003-03-18 09:11:54 51°25.975 2°48.434 33.7 0.5 304 23.2
2003-03-18 09:11:58 51°25.976 2°48.433 33.5 0.5 314 23.1
2003-03-18 09:12:02 51°25.976 2°48.432 33.3 0.5 318 23.3
2003-03-18 09:12:08 51°25.977 2°48.431 33.2 0.5 318 23.3
2003-03-18 09:12:14 51°25.978 2°48.43 33.1 0.5 318 23.3
2003-03-18 09:12:18 51°25.978 2°48.43 33 0.6 320 23.4
2003-03-18 09:12:24 51°25.979 2°48.43 33.2 0.6 334 23.5
2003-03-18 09:12:29 51°25.98 2°48.429 33.4 0.7 344 23.3
2003-03-18 09:12:34 51°25.981 2°48.429 33.5 0.7 350 23.1
2003-03-18 09:12:38 51°25.982 2°48.429 33.9 0.7 349 23.1
2003-03-18 09:12:44 51°25.982 2°48.429 33.9 0.7 346 23.2
2003-03-18 09:12:48 51°25.983 2°48.428 34 0.7 344 23.3
2003-03-18 09:12:54 51°25.984 2°48.427 34.1 0.6 341 23.4
2003-03-18 09:12:59 51°25.985 2°48.426 34.2 0.6 337 23.5
2003-03-18 09:13:03 51°25.985 2°48.426 34.5 0.6 329 23.5
2003-03-18 09:13:09 51°25.986 2°48.425 34.5 0.5 322 23.6
2003-03-18 09:13:14 51°25.986 2°48.424 34.4 0.5 312 23.5
2003-03-18 09:13:18 51°25.986 2°48.423 34.3 0.5 309 23.5
2003-03-18 09:13:24 51°25.987 2°48.422 34.1 0.5 307 23.5
2003-03-18 09:13:29 51°25.988 2°48.421 34 0.5 303 23.5
2003-03-18 09:13:34 51°25.988 2°48.42 33.8 0.5 297 23.5
2003-03-18 09:13:38 51°25.988 2°48.419 33.8 0.5 291 23.5
2003-03-18 09:13:42 51°25.988 2°48.418 33.8 0.5 287 23.6
2003-03-18 09:13:48 51°25.988 2°48.417 34.2 0.5 286 23.3
2003-03-18 09:13:54 51°25.989 2°48.416 34.6 0.5 285 23.3
2003-03-18 09:13:58 51°25.989 2°48.415 35.1 0.5 282 23.2
2003-03-18 09:14:04 51°25.989 2°48.413 35.6 0.5 277 23.1
2003-03-18 09:14:08 51°25.989 2°48.412 36.3 0.5 273 23.3
2003-03-18 09:14:13 51°25.989 2°48.411 37.1 0.5 269 23.2
2003-03-18 09:14:19 51°25.989 2°48.41 37.8 0.5 267 23.3
2003-03-18 09:14:24 51°25.989 2°48.409 38.9 0.5 256 23.4
2003-03-18 09:14:28 51°25.989 2°48.408 40.1 0.5 258 23.4
2003-03-18 09:14:32 51°25.988 2°48.407 41.9 0.6 257 23.2
2003-03-18 09:14:38 51°25.988 2°48.406 43.4 0.6 250 23.2
2003-03-18 09:14:44 51°25.987 2°48.405 44.8 0.6 246 23.2
2003-03-18 09:14:49 51°25.987 2°48.404 45.6 0.6 240 23.4
2003-03-18 09:14:54 51°25.986 2°48.403 47.1 0.6 235 23.4
2003-03-18 09:14:58 51°25.986 2°48.402 47.8 0.6 233 23.3
2003-03-18 09:15:04 51°25.985 2°48.401 48.6 0.6 231 23.2
2003-03-18 09:15:08 51°25.985 2°48.399 49.8 0.6 231 23.3
2003-03-18 09:15:13 51°25.985 2°48.398 50.6 0.7 227 23.5
2003-03-18 09:15:18 51°25.984 2°48.396 51.4 0.7 226 23.3
2003-03-18 09:15:24 51°25.984 2°48.395 52.7 0.6 222 23.2
2003-03-18 09:15:28 51°25.983 2°48.395 54.3 0.6 220 23.3
2003-03-18 09:15:34 51°25.983 2°48.394 56.1 0.5 214 23.4
2003-03-18 09:15:38 51°25.982 2°48.394 58.8 0.5 213 23.5
2003-03-18 09:15:44 51°25.981 2°48.394 60.9 0.5 209 23.4
2003-03-18 09:15:49 51°25.98 2°48.394 63.1 0.6 181 23.3
2003-03-18 09:15:54 51°25.979 2°48.395 65.3 0.6 176 23.2
2003-03-18 09:15:58 51°25.979 2°48.395 67.2 0.6 173 23.2
2003-03-18 09:16:04 51°25.977 2°48.395 68.4 0.6 172 23.4
2003-03-18 09:16:08 51°25.977 2°48.395 69 0.6 173 23.4
2003-03-18 09:16:14 51°25.976 2°48.395 69.3 0.6 173 23.3
2003-03-18 09:16:18 51°25.975 2°48.395 69 0.6 172 23.2
2003-03-18 09:16:24 51°25.975 2°48.396 68.2 0.6 168 23.2
2003-03-18 09:16:28 51°25.974 2°48.396 66.7 0.6 168 23.3
2003-03-18 09:16:34 51°25.973 2°48.397 65.2 0.6 163 23.3
2003-03-18 09:16:38 51°25.973 2°48.397 63.4 0.6 161 23.4
2003-03-18 09:16:44 51°25.972 2°48.397 61.1 0.5 159 23.5
2003-03-18 09:16:49 51°25.971 2°48.398 59 0.5 162 23.5
2003-03-18 09:16:54 51°25.971 2°48.398 56.8 0.4 167 23.4
2003-03-18 09:16:58 51°25.971 2°48.398 54.7 0.3 169 23.4
2003-03-18 09:17:04 51°25.97 2°48.398 52.6 0.3 170 23.3
2003-03-18 09:17:08 51°25.97 2°48.398 50.8 0.2 173 23.3
2003-03-18 09:17:14 51°25.97 2°48.398 49.1 0.2 183 23.3
2003-03-18 09:17:19 51°25.97 2°48.398 47.6 0.2 172 23.3
2003-03-18 09:17:24 51°25.969 2°48.398 46.4 0.1 168 23.2
2003-03-18 09:17:29 51°25.969 2°48.399 45.3 0.1 159 23.2
2003-03-18 09:17:34 51°25.969 2°48.399 44.5   308 23.2
2003-03-18 09:17:38 51°25.969 2°48.399 43.8   290 23.2
2003-03-18 09:17:44 51°25.969 2°48.399 43.4   151 23.2
2003-03-18 09:17:48 51°25.969 2°48.399 43.3   129 23.2
2003-03-18 09:17:53 51°25.97 2°48.398 43.6 0.5 310 23.1
2003-03-18 09:17:58 51°25.97 2°48.398 43.8 0.3 313 23.2
2003-03-18 09:18:04 51°25.97 2°48.398 44.2 0.1 329 23.2
2003-03-18 09:18:09 51°25.97 2°48.397 44.7 0.1 39 23.3
2003-03-18 09:18:12 51°25.97 2°48.398 45 0.1 83 23.3
2003-03-18 09:18:18 51°25.97 2°48.399 46.1 0.1 74 23.3
2003-03-18 09:18:23 51°25.97 2°48.399 46.4 0.1 75 23.3
2003-03-18 09:18:29 51°25.97 2°48.399 47 0.1 85 23.2
2003-03-18 09:18:34 51°25.97 2°48.399 47.1 0.1 84 23.4
2003-03-18 09:18:38 51°25.97 2°48.399 47.1 0.1 84 23.5
2003-03-18 09:18:44 51°25.97 2°48.4 46.7 0.1 78 23.4
2003-03-18 09:18:48 51°25.97 2°48.4 46.4 0.1 53 23.5
2003-03-18 09:18:54 51°25.97 2°48.4 45.4 0.1 71 23.5
2003-03-18 09:18:58 51°25.97 2°48.4 44.1 0.1 60 23.5
2003-03-18 09:19:04 51°25.97 2°48.4 42.7 0.1 357 23.5
2003-03-18 09:19:08 51°25.97 2°48.4 41.1 0.1 334 23.5